createdAt,value
2022-08-03T00:02:16.892Z,72.27
2022-08-03T00:04:44.111Z,72.66
2022-08-03T00:07:11.090Z,73.34
2022-08-03T00:09:38.179Z,72.19
2022-08-03T00:12:05.996Z,72.66
2022-08-03T00:14:33.073Z,72.63
2022-08-03T00:17:01.568Z,72.78
2022-08-03T00:19:28.648Z,72.84
2022-08-03T00:21:55.696Z,72.41
2022-08-03T00:24:22.745Z,72.43
2022-08-03T00:26:49.695Z,73.18
2022-08-03T00:29:16.725Z,73.87
2022-08-03T00:31:52.218Z,74.09
2022-08-03T00:34:57.199Z,74.33
2022-08-03T00:37:16.462Z,73.88
2022-08-03T00:39:46.011Z,73.86
2022-08-03T00:42:13.625Z,74.51
2022-08-03T00:44:41.198Z,74.94
2022-08-03T00:47:10.459Z,74.88
2022-08-03T00:49:39.463Z,75.33
2022-08-03T00:52:18.155Z,74.89
2022-08-03T00:54:45.450Z,75.50
2022-08-03T00:57:12.741Z,75.65
2022-08-03T00:59:39.795Z,76.13
2022-08-03T01:02:06.864Z,76.67
2022-08-03T01:04:33.952Z,74.61
2022-08-03T01:07:12.297Z,75.27
2022-08-03T01:09:47.910Z,74.36
2022-08-03T01:12:22.816Z,75.22
2022-08-03T01:14:55.643Z,75.68
2022-08-03T01:17:33.666Z,76.15
2022-08-03T01:20:06.732Z,76.30
2022-08-03T01:23:03.861Z,76.11
2022-08-03T01:25:41.462Z,76.26
2022-08-03T01:28:28.897Z,77.04
2022-08-03T01:31:03.921Z,77.17
2022-08-03T01:33:37.271Z,77.27
2022-08-03T01:36:07.865Z,76.36
2022-08-03T01:38:41.010Z,76.02
2022-08-03T01:41:12.027Z,76.27
2022-08-03T01:44:27.324Z,77.66
2022-08-03T01:46:32.488Z,77.83
2022-08-03T01:49:01.628Z,78.08
2022-08-03T01:51:56.685Z,78.60
2022-08-03T01:54:26.124Z,78.99
2022-08-03T01:56:54.491Z,77.65
2022-08-03T01:59:23.289Z,77.94
2022-08-03T02:02:31.987Z,78.68
2022-08-03T02:04:42.585Z,78.27
2022-08-03T02:07:10.585Z,78.85
2022-08-03T02:09:40.252Z,78.75
2022-08-03T02:12:09.466Z,79.27
2022-08-03T02:14:39.257Z,79.55
2022-08-03T02:17:09.834Z,79.43
2022-08-03T02:19:37.824Z,78.83
2022-08-03T02:22:08.517Z,79.22
2022-08-03T02:24:35.431Z,79.43
2022-08-03T02:27:07.980Z,79.43
2022-08-03T02:29:40.189Z,80.26
2022-08-03T02:32:14.635Z,79.66
2022-08-03T02:34:45.917Z,79.72
2022-08-03T02:37:13.644Z,79.99
2022-08-03T02:39:43.032Z,79.99
2022-08-03T02:42:12.815Z,79.61
2022-08-03T02:44:43.821Z,80.19
2022-08-03T02:47:13.655Z,79.83
2022-08-03T02:49:50.614Z,79.66
2022-08-03T02:52:21.730Z,79.51
2022-08-03T02:54:51.207Z,80.06
2022-08-03T02:57:20.179Z,79.91
2022-08-03T02:59:47.841Z,80.71
2022-08-03T03:02:17.800Z,80.84
2022-08-03T03:05:50.715Z,81.40
2022-08-03T03:07:34.631Z,81.54
2022-08-03T03:10:19.035Z,81.62
2022-08-03T03:12:47.067Z,82.23
2022-08-03T03:15:14.064Z,82.04
2022-08-03T03:17:44.233Z,81.12
2022-08-03T03:20:12.091Z,82.02
2022-08-03T03:22:40.131Z,81.28
2022-08-03T03:25:12.399Z,81.11
2022-08-03T03:27:40.079Z,81.93
2022-08-03T03:30:08.321Z,82.01
2022-08-03T03:32:37.002Z,82.15
2022-08-03T03:35:06.903Z,81.96
2022-08-03T03:37:33.780Z,82.23
2022-08-03T03:40:00.636Z,80.97
2022-08-03T03:42:27.694Z,81.90
2022-08-03T03:44:54.815Z,81.42
2022-08-03T03:47:32.569Z,82.54
2022-08-03T03:50:00.209Z,82.06
2022-08-03T03:52:28.594Z,81.98
2022-08-03T03:55:00.659Z,82.14
2022-08-03T03:57:28.220Z,82.38
2022-08-03T03:59:55.086Z,82.08
2022-08-03T04:02:21.994Z,82.81
2022-08-03T04:05:07.301Z,81.93
2022-08-03T04:08:05.463Z,81.51
2022-08-03T04:10:54.410Z,81.94
2022-08-03T04:13:22.180Z,81.81
2022-08-03T04:15:50.692Z,81.60
2022-08-03T04:18:19.161Z,81.32
2022-08-03T04:20:48.948Z,81.85
2022-08-03T04:23:21.289Z,81.31
2022-08-03T04:25:51.733Z,80.50
2022-08-03T04:28:21.084Z,81.62
2022-08-03T04:30:57.950Z,81.51
2022-08-03T04:33:29.387Z,81.26
2022-08-03T04:36:02.921Z,80.99
2022-08-03T04:38:33.163Z,80.87
2022-08-03T04:41:01.160Z,80.14
2022-08-03T04:43:28.474Z,81.00
2022-08-03T04:45:57.041Z,81.62
2022-08-03T04:48:24.597Z,81.62
2022-08-03T04:50:52.169Z,81.51
2022-08-03T04:53:19.609Z,81.35
2022-08-03T04:55:48.135Z,80.97
2022-08-03T04:58:15.048Z,80.42
2022-08-03T05:00:43.019Z,81.14
2022-08-03T05:03:23.720Z,80.93
2022-08-03T05:05:51.673Z,80.53
2022-08-03T05:08:20.540Z,79.27
2022-08-03T05:10:58.912Z,80.39
2022-08-03T05:13:26.447Z,79.50
2022-08-03T05:15:53.621Z,78.71
2022-08-03T05:18:20.580Z,77.90
2022-08-03T05:20:47.523Z,77.17
2022-08-03T05:23:14.470Z,75.97
2022-08-03T05:25:49.639Z,75.80
2022-08-03T05:28:18.571Z,74.85
2022-08-03T05:30:45.624Z,74.20
2022-08-03T05:33:12.627Z,73.11
2022-08-03T05:36:00.434Z,72.07
2022-08-03T05:38:28.460Z,72.21
2022-08-03T05:41:21.270Z,71.08
2022-08-03T05:43:45.696Z,69.65
2022-08-03T05:46:13.372Z,69.18
2022-08-03T05:48:40.391Z,68.08
2022-08-03T05:51:11.659Z,66.52
2022-08-03T05:53:39.208Z,67.20
2022-08-03T05:56:13.874Z,67.41
2022-08-03T05:58:43.157Z,64.65
2022-08-03T06:01:11.680Z,64.39
2022-08-03T06:03:38.698Z,64.64
2022-08-03T06:06:05.864Z,63.25
2022-08-03T06:08:33.054Z,63.67
2022-08-03T06:11:00.144Z,62.64
2022-08-03T06:13:27.084Z,62.65
2022-08-03T06:15:54.062Z,63.22
2022-08-03T06:18:24.122Z,63.13
2022-08-03T06:20:51.257Z,62.10
2022-08-03T06:23:19.408Z,61.23
2022-08-03T06:25:46.843Z,60.53
2022-08-03T06:28:42.501Z,59.76
2022-08-03T06:31:01.626Z,59.96
2022-08-03T06:34:30.987Z,58.36
2022-08-03T06:36:17.132Z,57.29
2022-08-03T06:38:44.094Z,57.51
2022-08-03T06:41:11.026Z,57.97
2022-08-03T06:44:02.602Z,57.37
2022-08-03T06:46:25.990Z,56.61
2022-08-03T06:48:56.161Z,54.92
2022-08-03T06:52:03.742Z,55.22
2022-08-03T06:54:11.027Z,54.92
2022-08-03T06:56:38.055Z,54.64
2022-08-03T06:59:05.651Z,54.73
2022-08-03T07:01:32.990Z,54.49
2022-08-03T07:04:01.982Z,53.93
2022-08-03T07:06:29.051Z,53.00
2022-08-03T07:08:59.580Z,52.10
2022-08-03T07:11:27.009Z,52.23
2022-08-03T07:13:54.080Z,51.47
2022-08-03T07:16:21.242Z,50.24
2022-08-03T07:18:48.298Z,50.24
2022-08-03T07:21:17.412Z,50.24
2022-08-03T07:23:44.333Z,49.14
2022-08-03T07:26:11.781Z,48.50
2022-08-03T07:28:38.877Z,48.15
2022-08-03T07:31:05.867Z,47.87
2022-08-03T07:33:32.892Z,47.69
2022-08-03T07:36:00.101Z,47.12
2022-08-03T07:38:30.043Z,47.24
2022-08-03T07:40:57.379Z,46.16
2022-08-03T07:43:24.868Z,45.75
2022-08-03T07:45:51.826Z,45.14
2022-08-03T07:48:18.858Z,43.50
2022-08-03T07:50:46.358Z,42.70
2022-08-03T07:53:14.681Z,40.92
2022-08-03T07:55:43.069Z,39.93
2022-08-03T07:58:21.998Z,39.30
2022-08-03T08:00:53.159Z,36.20
2022-08-03T08:03:21.974Z,37.01
2022-08-03T08:05:49.843Z,35.51
2022-08-03T08:08:16.823Z,34.27
2022-08-03T08:10:56.893Z,34.25
2022-08-03T08:13:26.619Z,33.79
2022-08-03T08:15:53.667Z,33.52
2022-08-03T08:18:20.739Z,33.29
2022-08-03T08:20:48.010Z,33.98
2022-08-03T08:23:42.108Z,32.89
2022-08-03T08:26:03.586Z,33.41
2022-08-03T08:28:33.665Z,32.66
2022-08-03T08:31:01.113Z,32.78
2022-08-03T08:33:42.501Z,32.14
2022-08-03T08:36:15.855Z,32.95
2022-08-03T08:38:44.633Z,32.66
2022-08-03T08:41:15.763Z,32.45
2022-08-03T08:43:43.607Z,32.25
2022-08-03T08:46:13.251Z,32.31
2022-08-03T08:48:51.814Z,32.23
2022-08-03T08:51:20.837Z,31.80
2022-08-03T08:53:52.179Z,31.37
2022-08-03T08:56:22.971Z,32.27
2022-08-03T08:58:54.571Z,31.68
2022-08-03T09:01:22.132Z,31.68
2022-08-03T09:03:49.604Z,31.56
2022-08-03T09:06:17.099Z,30.78
2022-08-03T09:08:44.865Z,31.21
2022-08-03T09:11:13.003Z,30.68
2022-08-03T09:13:42.123Z,30.79
2022-08-03T09:16:12.372Z,31.58
2022-08-03T09:18:40.289Z,30.80
2022-08-03T09:21:30.729Z,30.67
2022-08-03T09:24:03.650Z,30.75
2022-08-03T09:26:33.575Z,31.14
2022-08-03T09:29:07.117Z,30.24
2022-08-03T09:31:39.316Z,31.00
2022-08-03T09:34:12.506Z,30.71
2022-08-03T09:36:43.618Z,29.99
2022-08-03T09:39:12.506Z,29.81
2022-08-03T09:41:42.579Z,29.63
2022-08-03T09:44:24.618Z,29.70
2022-08-03T09:46:53.908Z,30.85
2022-08-03T09:49:21.418Z,28.84
2022-08-03T09:52:32.823Z,29.26
2022-08-03T09:54:36.141Z,29.56
2022-08-03T09:57:03.677Z,29.74
2022-08-03T09:59:33.710Z,29.46
2022-08-03T10:02:01.848Z,29.04
2022-08-03T10:04:29.277Z,28.91
2022-08-03T10:07:05.485Z,29.09
2022-08-03T10:09:32.440Z,29.13
2022-08-03T10:12:08.140Z,29.40
2022-08-03T10:14:38.497Z,28.03
2022-08-03T10:17:06.056Z,28.40
2022-08-03T10:19:33.464Z,28.41
2022-08-03T10:22:04.713Z,28.13
2022-08-03T10:24:36.473Z,27.64
2022-08-03T10:27:07.125Z,27.76
2022-08-03T10:29:43.716Z,27.77
2022-08-03T10:32:15.990Z,27.34
2022-08-03T10:34:45.121Z,28.26
2022-08-03T10:37:14.242Z,27.47
2022-08-03T10:39:53.591Z,27.53
2022-08-03T10:42:26.317Z,27.50
2022-08-03T10:45:03.744Z,27.22
2022-08-03T10:47:32.721Z,27.22
2022-08-03T10:50:01.553Z,26.97
2022-08-03T10:52:35.108Z,27.23
2022-08-03T10:55:21.663Z,27.35
2022-08-03T10:57:52.459Z,26.57
2022-08-03T11:00:30.266Z,26.88
2022-08-03T11:03:09.246Z,26.55
2022-08-03T11:05:39.668Z,26.19
2022-08-03T11:08:22.391Z,26.83
2022-08-03T11:10:51.111Z,27.08
2022-08-03T11:13:20.353Z,26.10
2022-08-03T11:15:51.220Z,26.37
2022-08-03T11:18:18.299Z,25.36
2022-08-03T11:20:50.764Z,26.18
2022-08-03T11:23:19.888Z,25.70
2022-08-03T11:26:11.223Z,25.55
2022-08-03T11:28:41.591Z,25.56
2022-08-03T11:31:50.357Z,26.34
2022-08-03T11:34:17.932Z,25.49
2022-08-03T11:37:21.002Z,25.55
2022-08-03T11:39:54.737Z,25.68
2022-08-03T11:42:47.040Z,24.73
2022-08-03T11:45:15.117Z,24.88
2022-08-03T11:47:50.907Z,25.16
2022-08-03T11:50:20.263Z,25.39
2022-08-03T11:52:48.111Z,25.10
2022-08-03T11:55:18.959Z,24.38
2022-08-03T11:59:10.856Z,24.31
2022-08-03T12:00:34.576Z,24.53
2022-08-03T12:03:06.221Z,24.06
2022-08-03T12:05:37.930Z,23.74
2022-08-03T12:08:07.106Z,23.24
2022-08-03T12:10:34.752Z,23.75
2022-08-03T12:13:05.906Z,23.72
2022-08-03T12:15:54.345Z,23.91
2022-08-03T12:18:24.059Z,24.28
2022-08-03T12:20:52.044Z,24.20
2022-08-03T12:23:19.820Z,23.46
2022-08-03T12:25:47.522Z,23.87
2022-08-03T12:28:37.103Z,23.90
2022-08-03T12:31:07.626Z,24.00
2022-08-03T12:33:55.946Z,24.20
2022-08-03T12:36:22.903Z,24.21
2022-08-03T12:38:56.833Z,24.23
2022-08-03T12:41:29.481Z,23.67
2022-08-03T12:43:56.645Z,22.68
2022-08-03T12:46:31.017Z,22.53
2022-08-03T12:49:03.760Z,22.44
2022-08-03T12:51:32.753Z,22.94
2022-08-03T12:53:59.876Z,22.68
2022-08-03T12:56:27.612Z,22.50
2022-08-03T12:58:54.669Z,21.70
2022-08-03T13:01:27.858Z,22.29
2022-08-03T13:03:54.999Z,22.42
2022-08-03T13:06:24.765Z,22.43
2022-08-03T13:09:03.669Z,22.60
2022-08-03T13:11:57.279Z,21.63
2022-08-03T13:14:20.173Z,21.85
2022-08-03T13:16:48.072Z,21.94
2022-08-03T13:19:15.549Z,21.83
2022-08-03T13:21:53.864Z,21.40
2022-08-03T13:24:32.038Z,21.04
2022-08-03T13:26:59.121Z,21.17
2022-08-03T13:29:26.110Z,21.26
2022-08-03T13:31:53.145Z,21.84
2022-08-03T13:34:23.530Z,21.95
2022-08-03T13:37:08.303Z,21.56
2022-08-03T13:39:58.130Z,21.96
2022-08-03T13:42:23.244Z,21.08
2022-08-03T13:44:50.846Z,20.29
2022-08-03T13:47:17.914Z,20.71
2022-08-03T13:49:54.303Z,21.05
2022-08-03T13:52:29.487Z,20.61
2022-08-03T13:54:56.561Z,21.43
2022-08-03T13:58:04.030Z,20.08
2022-08-03T14:00:12.367Z,20.86
2022-08-03T14:02:39.547Z,19.91
2022-08-03T14:05:08.260Z,20.29
2022-08-03T14:07:36.773Z,20.54
2022-08-03T14:10:03.949Z,20.66
2022-08-03T14:12:32.014Z,20.24
2022-08-03T14:15:01.564Z,19.16
2022-08-03T14:17:42.364Z,19.21
2022-08-03T14:20:38.555Z,19.97
2022-08-03T14:23:04.545Z,19.22
2022-08-03T14:25:43.018Z,19.12
2022-08-03T14:28:17.352Z,18.46
2022-08-03T14:30:44.335Z,19.04
2022-08-03T14:33:11.363Z,18.90
2022-08-03T14:35:38.609Z,19.51
2022-08-03T14:38:07.089Z,19.40
2022-08-03T14:40:34.190Z,20.37
2022-08-03T14:43:02.423Z,19.80
2022-08-03T14:45:29.484Z,19.28
2022-08-03T14:50:29.014Z,19.45
2022-08-03T14:50:50.196Z,19.43
2022-08-03T14:53:20.099Z,19.24
2022-08-03T14:55:51.239Z,19.02
2022-08-03T14:58:20.784Z,19.57
2022-08-03T15:00:49.339Z,18.98
2022-08-03T15:03:17.176Z,18.50
2022-08-03T15:05:45.339Z,18.25
2022-08-03T15:08:12.602Z,18.97
2022-08-03T15:10:44.370Z,18.08
2022-08-03T15:13:12.370Z,18.40
2022-08-03T15:15:39.739Z,18.42
2022-08-03T15:18:07.484Z,18.30
2022-08-03T15:20:49.897Z,18.24
2022-08-03T15:23:18.392Z,18.70
2022-08-03T15:26:29.355Z,18.71
2022-08-03T15:28:34.926Z,18.21
2022-08-03T15:31:04.962Z,18.42
2022-08-03T15:33:32.344Z,18.51
2022-08-03T15:36:00.432Z,19.19
2022-08-03T15:38:27.596Z,19.23
2022-08-03T15:40:56.439Z,19.51
2022-08-03T15:43:24.058Z,19.18
2022-08-03T15:46:26.608Z,19.38
2022-08-03T15:48:39.365Z,19.25
2022-08-03T15:51:06.772Z,18.93
2022-08-03T15:53:36.921Z,19.57
2022-08-03T15:56:15.506Z,19.18
2022-08-03T15:59:10.239Z,19.22
2022-08-03T16:01:35.503Z,19.18
2022-08-03T16:04:02.597Z,19.33
2022-08-03T16:06:35.119Z,18.63
2022-08-03T16:09:04.766Z,19.50
2022-08-03T16:11:33.233Z,19.75
2022-08-03T16:14:13.179Z,19.24
2022-08-03T16:16:47.293Z,19.94
2022-08-03T16:19:14.313Z,20.18
2022-08-03T16:21:48.690Z,20.54
2022-08-03T16:24:17.328Z,20.54
2022-08-03T16:26:48.310Z,22.11
2022-08-03T16:29:23.364Z,22.30
2022-08-03T16:31:51.146Z,23.15
2022-08-03T16:34:18.579Z,23.34
2022-08-03T16:36:46.003Z,23.03
2022-08-03T16:39:13.008Z,23.42
2022-08-03T16:41:54.116Z,23.64
2022-08-03T16:44:30.670Z,23.81
2022-08-03T16:46:57.940Z,23.69
2022-08-03T16:49:54.011Z,23.78
2022-08-03T16:52:12.853Z,23.84
2022-08-03T16:54:40.263Z,24.07
2022-08-03T16:57:07.602Z,24.37
2022-08-03T16:59:37.183Z,24.22
2022-08-03T17:02:10.171Z,24.46
2022-08-03T17:04:40.228Z,24.72
2022-08-03T17:07:08.880Z,24.74
2022-08-03T17:09:38.736Z,24.74
2022-08-03T17:12:07.575Z,25.04
2022-08-03T17:14:39.925Z,25.61
2022-08-03T17:17:16.338Z,24.91
2022-08-03T17:19:47.126Z,24.88
2022-08-03T17:22:17.768Z,25.63
2022-08-03T17:24:46.256Z,26.13
2022-08-03T17:27:23.088Z,25.69
2022-08-03T17:30:08.450Z,25.75
2022-08-03T17:32:42.626Z,25.79
2022-08-03T17:35:20.784Z,26.08
2022-08-03T17:37:58.145Z,26.42
2022-08-03T17:40:31.200Z,25.73
2022-08-03T17:43:00.449Z,26.39
2022-08-03T17:45:51.991Z,26.80
2022-08-03T17:48:18.574Z,26.90
2022-08-03T17:50:52.120Z,27.54
2022-08-03T17:53:27.101Z,27.98
2022-08-03T17:56:05.656Z,27.36
2022-08-03T17:58:53.550Z,27.24
2022-08-03T18:02:00.316Z,28.00
2022-08-03T18:04:33.211Z,27.58
2022-08-03T18:07:11.153Z,27.88
2022-08-03T18:12:34.667Z,27.89
2022-08-03T18:15:08.453Z,28.58
2022-08-03T18:17:55.836Z,29.16
2022-08-03T18:20:34.369Z,29.90
2022-08-03T18:23:05.954Z,30.41
2022-08-03T18:25:42.925Z,31.58
2022-08-03T18:28:14.734Z,31.64
2022-08-03T18:30:53.128Z,32.31
2022-08-03T18:34:19.924Z,33.04
2022-08-03T18:36:17.878Z,31.92
2022-08-03T18:38:47.637Z,33.89
2022-08-03T18:41:31.724Z,32.78
2022-08-03T18:44:07.796Z,35.13
2022-08-03T18:46:50.586Z,35.21
2022-08-03T18:49:29.706Z,34.59
2022-08-03T18:52:04.393Z,36.02
2022-08-03T19:00:24.407Z,37.35
2022-08-03T19:03:09.333Z,37.73
2022-08-03T19:05:57.810Z,39.06
2022-08-03T19:08:41.186Z,38.57
2022-08-03T19:11:11.167Z,38.92
2022-08-03T19:13:50.346Z,39.15
2022-08-03T19:16:27.903Z,40.01
2022-08-03T19:18:58.512Z,40.54
2022-08-03T19:21:29.100Z,41.03
2022-08-03T19:24:00.335Z,41.51
2022-08-03T19:26:31.231Z,42.35
2022-08-03T19:28:58.902Z,42.90
2022-08-03T19:31:31.228Z,42.57
2022-08-03T19:34:03.209Z,43.30
2022-08-03T19:36:34.249Z,42.23
2022-08-03T19:39:09.245Z,43.37
2022-08-03T19:41:42.113Z,43.05
2022-08-03T19:44:10.459Z,43.16
2022-08-03T19:46:46.958Z,43.58
2022-08-03T19:49:16.366Z,43.72
2022-08-03T19:51:58.580Z,42.41
2022-08-03T19:54:36.987Z,42.41
2022-08-03T19:57:17.036Z,42.44
2022-08-03T19:59:49.847Z,42.81
2022-08-03T20:02:26.526Z,43.53
2022-08-03T20:04:55.981Z,43.87
2022-08-03T20:07:24.895Z,100.00
2022-08-03T20:09:54.445Z,100.00
2022-08-03T20:12:27.594Z,100.00
2022-08-03T20:14:56.952Z,100.00
2022-08-03T20:17:55.115Z,100.00
2022-08-03T20:20:11.270Z,100.00
2022-08-03T20:22:46.156Z,100.00
2022-08-03T20:25:20.725Z,100.00
2022-08-03T20:28:07.883Z,100.00
2022-08-03T20:30:42.544Z,100.00
2022-08-03T20:33:10.309Z,100.00
2022-08-03T20:35:37.423Z,100.00
2022-08-03T20:38:06.872Z,100.00
2022-08-03T20:40:33.893Z,100.00
2022-08-03T20:43:01.743Z,100.00
2022-08-03T20:45:58.466Z,100.00
2022-08-03T20:48:18.055Z,100.00
2022-08-03T20:50:49.295Z,100.00
2022-08-03T20:53:56.781Z,100.00
2022-08-03T20:56:05.395Z,100.00
2022-08-03T20:58:38.209Z,100.00
2022-08-03T21:01:09.188Z,43.87
2022-08-03T21:03:40.663Z,49.46
2022-08-03T21:06:35.756Z,49.56
2022-08-03T21:09:06.921Z,50.07
2022-08-03T21:11:41.828Z,50.32
2022-08-03T21:13:00.958Z,35.07
2022-08-03T21:13:00.963Z,36.59
2022-08-03T21:13:04.438Z,28.32
2022-08-03T21:14:15.474Z,51.35
2022-08-03T21:16:45.707Z,51.17
2022-08-03T21:19:14.689Z,52.35
2022-08-03T21:21:44.713Z,52.77
2022-08-03T21:24:14.086Z,52.97
2022-08-03T21:26:41.836Z,52.30
2022-08-03T21:29:11.625Z,51.87
2022-08-03T21:31:39.755Z,52.35
2022-08-03T21:34:06.883Z,52.31
2022-08-03T21:36:36.126Z,53.23
2022-08-03T21:39:05.761Z,53.29
2022-08-03T21:41:34.853Z,53.45
2022-08-03T21:44:02.492Z,53.56
2022-08-03T21:46:34.473Z,53.92
2022-08-03T21:50:06.719Z,54.54
2022-08-03T21:51:54.390Z,54.69
2022-08-03T21:54:23.292Z,55.02
2022-08-03T21:56:54.678Z,54.75
2022-08-03T21:59:26.147Z,54.75
2022-08-03T22:01:55.466Z,54.97
2022-08-03T22:04:54.981Z,55.40
2022-08-03T22:07:14.303Z,55.27
2022-08-03T22:09:50.991Z,55.38
2022-08-03T22:12:22.721Z,55.71
2022-08-03T22:14:50.051Z,56.00
2022-08-03T22:17:55.462Z,56.88
2022-08-03T22:20:17.072Z,56.31
2022-08-03T22:22:55.054Z,56.44
2022-08-03T22:25:27.419Z,56.52
2022-08-03T22:27:59.263Z,56.76
2022-08-03T22:30:26.208Z,56.93
2022-08-03T22:32:54.896Z,56.78
2022-08-03T22:35:24.573Z,57.01
2022-08-03T22:37:54.067Z,56.87
2022-08-03T22:40:21.580Z,56.64
2022-08-03T22:42:52.684Z,57.62
2022-08-03T22:46:07.301Z,57.39
2022-08-03T22:48:08.774Z,57.76
2022-08-03T22:50:36.255Z,58.85
2022-08-03T22:53:03.358Z,58.88
2022-08-03T22:55:30.437Z,58.35
2022-08-03T22:57:57.371Z,59.33
2022-08-03T23:00:25.787Z,60.14
2022-08-03T23:02:55.629Z,61.03
2022-08-03T23:06:02.592Z,60.72
2022-08-03T23:08:14.637Z,60.98
2022-08-03T23:10:46.730Z,60.57
2022-08-03T23:13:16.411Z,61.03
2022-08-03T23:15:49.711Z,61.48
2022-08-03T23:18:19.023Z,61.93
2022-08-03T23:20:49.308Z,61.97
2022-08-03T23:23:19.938Z,61.64
2022-08-03T23:25:49.704Z,61.44
2022-08-03T23:28:17.484Z,61.82
2022-08-03T23:30:47.426Z,62.04
2022-08-03T23:33:16.438Z,62.44
2022-08-03T23:36:28.725Z,62.55
2022-08-03T23:38:47.454Z,62.44
2022-08-03T23:41:16.683Z,62.83
2022-08-03T23:43:53.604Z,100.00
2022-08-03T23:46:24.083Z,100.00
2022-08-03T23:48:51.446Z,62.83
2022-08-03T23:51:32.393Z,64.26
2022-08-03T23:54:06.602Z,64.59
2022-08-03T23:56:41.628Z,64.71
2022-08-03T23:59:14.725Z,65.23
